Langnau, Switzerland
Current Conditions -  °F | °C
As of 2:20 PM on Friday 24 Oct 2014 (Local Time) from LSZB Reporting Station
Clear Clear  
Wind Chill: 50°   Ceiling: Unl
Heat Index: 50°   Visibility: 6mi
Dew Point: 39°   Wind: 6mph
Humidity: 66%   Direction: 280°W
Pressure: 30.12"   Gusts: NA
Location:  46.94°N, 7.77°E
Report Text: LSZB 241220Z 28005KT 230V310 CAVOK 10/04 Q1020 NOSIG
Loading
Personal Weather Stations






























Interactive Weather Map
Tropical Storm Tracking
New forecast layout! Learn more

10-Day Weather Forecast

Advertisements
Track Severe Weather on mobile